Time;durP1;ratioP1;P1;durP2;ratioP2;P2;SDS_P1;SDS_P2;PMS_P1;PMS_P2;Temp;Humidity;BMP_temperature;BMP_pressure;BME280_temperature;BME280_humidity;BME280_pressure;Samples;Min_cycle;Max_cycle;Signal;HPM_P1;HPM_P2
2022/04/01 00:01:57;;;;;;;;;;;2.80;97.20;;;;;;5033010;28;19923;-65
2022/04/01 00:04:22;;;;;;;;;;;2.70;98.00;;;;;;5032985;28;19968;-63
2022/04/01 00:06:48;;;;;;;;;;;2.60;98.30;;;;;;5037735;28;20344;-65
2022/04/01 00:09:13;;;;;;;;;;;2.50;98.60;;;;;;5033219;28;19921;-66
2022/04/01 00:11:38;;;;;;;;;;;2.50;99.10;;;;;;5039547;28;20015;-66
2022/04/01 00:14:04;;;;;;;;;;;2.40;99.70;;;;;;5034328;28;21164;-65
2022/04/01 00:16:30;;;;;;;;;;;2.30;99.90;;;;;;5036967;28;19917;-65
2022/04/01 00:18:55;;;;;;;;;;;2.20;99.90;;;;;;5034614;28;20381;-65
2022/04/01 00:21:21;;;;;;;;;;;2.10;99.90;;;;;;5039263;28;19913;-66
2022/04/01 00:23:46;;;;;;;;;;;2.00;99.90;;;;;;5038166;28;19921;-66
2022/04/01 00:26:11;;;;;;;;;;;2.00;99.90;;;;;;5033354;28;20443;-66
2022/04/01 00:28:38;;;;;;;;;;;1.90;99.90;;;;;;5037340;28;19917;-66
2022/04/01 00:31:03;;;;;;;;;;;1.90;99.90;;;;;;5036719;28;19935;-65
2022/04/01 00:33:29;;;;;;;;;;;1.80;99.90;;;;;;5037766;28;20432;-66
2022/04/01 00:35:54;;;;;;;;;;;1.80;99.90;;;;;;5038546;28;19928;-66
2022/04/01 00:38:20;;;;;;;;;;;1.70;99.90;;;;;;5037026;28;19955;-66
2022/04/01 00:40:45;;;;;;;;;;;1.60;99.90;;;;;;5039271;28;19955;-66
2022/04/01 00:43:11;;;;;;;;;;;1.50;99.90;;;;;;5031697;28;20306;-65
2022/04/01 00:45:37;;;;;;;;;;;1.40;99.90;;;;;;5034915;28;19921;-66
2022/04/01 00:48:02;;;;;;;;;;;1.40;99.90;;;;;;5036346;28;20328;-66
2022/04/01 00:50:32;;;;;;;;;;;1.40;99.90;;;;;;5038706;28;19958;-66
2022/04/01 00:52:58;;;;;;;;;;;1.30;99.90;;;;;;5037200;28;20308;-65
2022/04/01 00:55:23;;;;;;;;;;;1.20;99.90;;;;;;5038174;28;20397;-65
2022/04/01 00:57:49;;;;;;;;;;;1.20;99.90;;;;;;5035463;28;19917;-66
2022/04/01 01:00:14;;;;;;;;;;;1.10;99.90;;;;;;5033572;28;20341;-66
2022/04/01 01:02:40;;;;;;;;;;;1.10;99.90;;;;;;5036755;28;19920;-65
2022/04/01 01:05:06;;;;;;;;;;;1.10;99.90;;;;;;5035332;28;20229;-65
2022/04/01 01:07:31;;;;;;;;;;;1.00;99.90;;;;;;5035289;28;20297;-65
2022/04/01 01:09:57;;;;;;;;;;;1.00;99.90;;;;;;5036399;28;20035;-66
2022/04/01 01:12:23;;;;;;;;;;;0.90;99.90;;;;;;5032376;28;20270;-66
2022/04/01 01:14:49;;;;;;;;;;;0.90;99.90;;;;;;5035141;28;19921;-66
2022/04/01 01:17:14;;;;;;;;;;;0.90;99.90;;;;;;5033698;28;20350;-66
2022/04/01 01:19:41;;;;;;;;;;;0.90;99.90;;;;;;5036309;28;22306;-66
2022/04/01 01:22:08;;;;;;;;;;;0.90;99.90;;;;;;5036627;28;19939;-66
2022/04/01 01:24:35;;;;;;;;;;;0.90;99.90;;;;;;5039432;28;19917;-66
2022/04/01 01:27:01;;;;;;;;;;;0.90;99.90;;;;;;5033360;28;19971;-66
2022/04/01 01:29:28;;;;;;;;;;;0.80;99.90;;;;;;5037795;28;19962;-66
2022/04/01 01:31:55;;;;;;;;;;;0.80;99.90;;;;;;5035126;28;20306;-66
2022/04/01 01:34:21;;;;;;;;;;;0.80;99.90;;;;;;5038124;28;19956;-66
2022/04/01 01:36:46;;;;;;;;;;;0.80;99.90;;;;;;5038974;28;19959;-66
2022/04/01 01:39:13;;;;;;;;;;;0.80;99.90;;;;;;5035993;28;20004;-66
2022/04/01 01:41:38;;;;;;;;;;;0.80;99.90;;;;;;5036527;28;19921;-66
2022/04/01 01:44:04;;;;;;;;;;;0.70;99.90;;;;;;5034198;28;19917;-65
2022/04/01 01:46:29;;;;;;;;;;;0.70;99.90;;;;;;5034483;28;19917;-65
2022/04/01 01:48:55;;;;;;;;;;;0.70;99.90;;;;;;5034529;28;19913;-66
2022/04/01 01:56:49;;;;;;;;;;;0.60;99.90;;;;;;5033893;28;20262;-66
2022/04/01 01:59:14;;;;;;;;;;;0.60;99.90;;;;;;5035361;28;19916;-66
2022/04/01 02:01:41;;;;;;;;;;;0.60;99.90;;;;;;5035127;28;19921;-65
2022/04/01 02:04:06;;;;;;;;;;;0.60;99.90;;;;;;5036209;28;20011;-66
2022/04/01 02:06:32;;;;;;;;;;;0.60;99.90;;;;;;5036554;28;20384;-66
2022/04/01 02:08:58;;;;;;;;;;;0.50;99.90;;;;;;5038058;28;19983;-65
2022/04/01 02:11:23;;;;;;;;;;;0.50;99.90;;;;;;5034650;28;19914;-65
2022/04/01 02:13:50;;;;;;;;;;;0.50;99.90;;;;;;5036150;28;19996;-65
2022/04/01 02:16:16;;;;;;;;;;;0.50;99.90;;;;;;5033421;28;19925;-66
2022/04/01 02:18:41;;;;;;;;;;;0.50;99.90;;;;;;5034060;28;19928;-65
2022/04/01 02:21:15;;;;;;;;;;;0.50;99.90;;;;;;5033888;28;20237;-65
2022/04/01 02:23:44;;;;;;;;;;;0.50;99.90;;;;;;5035521;28;19917;-65
2022/04/01 02:26:10;;;;;;;;;;;0.50;99.90;;;;;;5035964;28;20378;-66
2022/04/01 02:28:36;;;;;;;;;;;0.50;99.90;;;;;;5035483;28;19963;-66
2022/04/01 02:31:03;;;;;;;;;;;0.50;99.90;;;;;;5033906;28;19917;-66
2022/04/01 02:33:29;;;;;;;;;;;0.50;99.90;;;;;;5034917;28;19920;-65
2022/04/01 02:35:57;;;;;;;;;;;0.50;99.90;;;;;;5036965;28;19920;-66
2022/04/01 02:38:24;;;;;;;;;;;0.50;99.90;;;;;;5033879;28;20350;-66
2022/04/01 02:40:49;;;;;;;;;;;0.40;99.90;;;;;;5037140;28;19923;-65
2022/04/01 02:43:15;;;;;;;;;;;0.40;99.90;;;;;;5034759;28;19917;-66
2022/04/01 02:45:40;;;;;;;;;;;0.40;99.90;;;;;;5035176;28;19923;-66
2022/04/01 02:48:05;;;;;;;;;;;0.40;99.90;;;;;;5034837;28;19952;-65
2022/04/01 02:50:31;;;;;;;;;;;0.40;99.90;;;;;;5035994;28;19909;-65
2022/04/01 02:52:56;;;;;;;;;;;0.40;99.90;;;;;;5033011;28;19913;-66
2022/04/01 02:55:22;;;;;;;;;;;0.40;99.90;;;;;;5036820;28;19909;-66
2022/04/01 02:57:47;;;;;;;;;;;0.40;99.90;;;;;;5034957;28;20208;-65
2022/04/01 03:00:21;;;;;;;;;;;0.40;99.90;;;;;;5030288;28;20404;-65
2022/04/01 03:02:47;;;;;;;;;;;0.40;99.90;;;;;;5032968;28;19916;-65
2022/04/01 03:05:13;;;;;;;;;;;0.40;99.90;;;;;;5035268;28;19924;-65
2022/04/01 03:07:38;;;;;;;;;;;0.40;99.90;;;;;;5036004;28;19921;-65
2022/04/01 03:10:04;;;;;;;;;;;0.40;99.90;;;;;;5035014;28;19917;-65
2022/04/01 03:12:30;;;;;;;;;;;0.40;99.90;;;;;;5034646;28;19949;-65
2022/04/01 03:14:56;;;;;;;;;;;0.40;99.90;;;;;;5036371;28;20441;-66
2022/04/01 03:17:21;;;;;;;;;;;0.40;99.90;;;;;;5034550;28;19944;-65
2022/04/01 03:19:47;;;;;;;;;;;0.40;99.90;;;;;;5035568;28;20480;-65
2022/04/01 03:22:12;;;;;;;;;;;0.30;99.90;;;;;;5035955;28;20013;-65
2022/04/01 03:24:37;;;;;;;;;;;0.30;99.90;;;;;;5035528;28;19919;-65
2022/04/01 03:27:03;;;;;;;;;;;0.20;99.90;;;;;;5036361;28;19943;-66
2022/04/01 03:29:30;;;;;;;;;;;0.20;99.90;;;;;;5033784;28;19920;-66
2022/04/01 03:31:55;;;;;;;;;;;0.20;99.90;;;;;;5035519;28;19913;-65
2022/04/01 03:34:22;;;;;;;;;;;0.10;99.90;;;;;;5035706;28;20060;-66
2022/04/01 03:36:47;;;;;;;;;;;0.10;99.90;;;;;;5035222;28;20289;-65
2022/04/01 03:39:13;;;;;;;;;;;0.10;99.90;;;;;;5035054;28;19925;-65
2022/04/01 03:41:39;;;;;;;;;;;0.10;99.90;;;;;;5038872;28;19912;-65
2022/04/01 03:44:05;;;;;;;;;;;0.10;99.90;;;;;;5037407;28;20046;-65
2022/04/01 03:46:45;;;;;;;;;;;0.10;99.90;;;;;;5039435;28;20001;-66
2022/04/01 03:49:12;;;;;;;;;;;0.10;99.90;;;;;;5038915;28;19924;-65
2022/04/01 03:51:38;;;;;;;;;;;0.10;99.90;;;;;;5039112;28;19985;-65
2022/04/01 03:54:05;;;;;;;;;;;0.10;99.90;;;;;;5038338;28;20003;-65
2022/04/01 03:56:32;;;;;;;;;;;0.10;99.90;;;;;;5037955;28;19913;-65
2022/04/01 03:59:03;;;;;;;;;;;0.10;99.90;;;;;;5036677;28;19951;-65
2022/04/01 04:01:28;;;;;;;;;;;0.10;99.90;;;;;;5032125;28;19909;-65
2022/04/01 04:03:56;;;;;;;;;;;0.10;99.90;;;;;;5036122;28;20350;-65
2022/04/01 04:06:21;;;;;;;;;;;0.10;99.90;;;;;;5038445;28;19921;-65
2022/04/01 04:08:48;;;;;;;;;;;0.10;99.90;;;;;;5040564;28;20373;-65
2022/04/01 04:11:15;;;;;;;;;;;0.10;99.90;;;;;;5038890;28;19913;-66
2022/04/01 04:13:41;;;;;;;;;;;0.10;99.90;;;;;;5040698;28;19909;-65
2022/04/01 04:16:15;;;;;;;;;;;0.10;99.90;;;;;;5039640;28;19990;-65
2022/04/01 04:18:43;;;;;;;;;;;0.10;99.90;;;;;;5040871;28;20415;-65
2022/04/01 04:21:10;;;;;;;;;;;0.10;99.90;;;;;;5037028;28;20316;-65
2022/04/01 04:23:42;;;;;;;;;;;0.00;99.90;;;;;;5039849;28;19995;-66
2022/04/01 04:26:13;;;;;;;;;;;0.10;99.90;;;;;;5035870;28;19962;-66
2022/04/01 04:28:40;;;;;;;;;;;0.10;99.90;;;;;;5039556;28;19917;-65
2022/04/01 04:31:07;;;;;;;;;;;0.10;99.90;;;;;;5038386;28;19920;-65
2022/04/01 04:33:33;;;;;;;;;;;0.10;99.90;;;;;;5034872;28;19917;-65
2022/04/01 04:36:01;;;;;;;;;;;0.10;99.90;;;;;;5035563;28;19932;-65
2022/04/01 04:38:29;;;;;;;;;;;0.10;99.90;;;;;;5033701;28;20047;-65
2022/04/01 04:40:56;;;;;;;;;;;0.00;99.90;;;;;;5036437;28;19996;-65
2022/04/01 04:43:23;;;;;;;;;;;0.00;99.90;;;;;;5025259;28;19928;-66
2022/04/01 04:45:51;;;;;;;;;;;0.00;99.90;;;;;;5029093;28;19913;-65
2022/04/01 04:48:17;;;;;;;;;;;0.00;99.90;;;;;;5037089;28;19971;-66
2022/04/01 04:50:45;;;;;;;;;;;0.00;99.90;;;;;;5037369;28;20381;-65
2022/04/01 04:53:12;;;;;;;;;;;0.00;99.90;;;;;;5034254;28;20283;-65
2022/04/01 04:55:39;;;;;;;;;;;0.00;99.90;;;;;;5033528;28;19971;-66
2022/04/01 04:58:07;;;;;;;;;;;0.00;99.90;;;;;;5026720;28;19974;-64
2022/04/01 05:00:32;;;;;;;;;;;0.00;99.90;;;;;;5031223;28;19939;-66
2022/04/01 05:03:12;;;;;;;;;;;-0.10;99.90;;;;;;5037604;28;20366;-64
2022/04/01 05:05:37;;;;;;;;;;;-0.10;99.90;;;;;;5034583;28;19932;-64
2022/04/01 05:08:05;;;;;;;;;;;-0.10;99.90;;;;;;5036510;28;19939;-65
2022/04/01 05:10:54;;;;;;;;;;;-0.10;99.90;;;;;;5037214;28;19914;-65
2022/04/01 05:13:19;;;;;;;;;;;-0.10;99.90;;;;;;5021346;28;19913;-65
2022/04/01 05:15:50;;;;;;;;;;;-0.10;99.90;;;;;;5035852;28;19947;-65
2022/04/01 05:18:25;;;;;;;;;;;-0.10;99.90;;;;;;5036874;28;19916;-65
2022/04/01 05:20:59;;;;;;;;;;;-0.10;99.90;;;;;;5035776;28;19946;-65
2022/04/01 05:23:43;;;;;;;;;;;-0.10;99.90;;;;;;5034255;28;20015;-65
2022/04/01 05:26:12;;;;;;;;;;;-0.10;99.90;;;;;;5036546;28;19917;-65
2022/04/01 05:28:45;;;;;;;;;;;-0.10;99.90;;;;;;5035079;28;19912;-65
2022/04/01 05:31:30;;;;;;;;;;;-0.10;99.90;;;;;;5035456;28;19913;-66
2022/04/01 05:34:14;;;;;;;;;;;-0.10;99.90;;;;;;5031847;28;19972;-65
2022/04/01 05:36:39;;;;;;;;;;;-0.10;99.90;;;;;;5034878;28;20513;-65
2022/04/01 05:39:05;;;;;;;;;;;-0.20;99.90;;;;;;5034411;28;19933;-65
2022/04/01 05:41:30;;;;;;;;;;;-0.20;99.90;;;;;;5039391;28;19912;-64
2022/04/01 05:43:57;;;;;;;;;;;-0.20;99.90;;;;;;5036970;28;20043;-65
2022/04/01 05:46:24;;;;;;;;;;;-0.20;99.90;;;;;;5037828;28;20347;-65
2022/04/01 05:48:49;;;;;;;;;;;-0.20;99.90;;;;;;5037672;28;19924;-65
2022/04/01 05:51:15;;;;;;;;;;;-0.20;99.90;;;;;;5035431;28;19917;-65
2022/04/01 05:53:44;;;;;;;;;;;-0.10;99.90;;;;;;5029448;28;20288;-65
2022/04/01 05:56:10;;;;;;;;;;;-0.10;99.90;;;;;;5036884;28;19921;-65
2022/04/01 05:58:36;;;;;;;;;;;-0.10;99.90;;;;;;5038476;28;19966;-65
2022/04/01 06:01:04;;;;;;;;;;;0.00;99.90;;;;;;5032184;28;20524;-76
2022/04/01 06:03:30;;;;;;;;;;;-0.10;99.90;;;;;;5030546;28;19909;-67
2022/04/01 06:06:01;;;;;;;;;;;-0.10;99.90;;;;;;5033830;28;20415;-69
2022/04/01 06:08:38;;;;;;;;;;;-0.10;99.90;;;;;;5034321;28;19920;-67
2022/04/01 06:11:27;;;;;;;;;;;-0.10;99.90;;;;;;5031735;28;19924;-66
2022/04/01 06:13:55;;;;;;;;;;;-0.10;99.90;;;;;;5036668;28;19913;-66
2022/04/01 06:16:41;;;;;;;;;;;-0.10;99.90;;;;;;5031067;28;20187;-67
2022/04/01 06:19:07;;;;;;;;;;;-0.10;99.90;;;;;;5034622;28;20383;-66
2022/04/01 06:21:37;;;;;;;;;;;-0.10;99.90;;;;;;5036165;28;19952;-65
2022/04/01 06:24:19;;;;;;;;;;;-0.10;99.90;;;;;;5035329;28;19928;-65
2022/04/01 06:26:51;;;;;;;;;;;-0.10;99.90;;;;;;5034347;28;19975;-65
2022/04/01 06:29:28;;;;;;;;;;;-0.10;99.90;;;;;;5033407;28;19919;-65
2022/04/01 06:31:58;;;;;;;;;;;-0.10;99.90;;;;;;5035086;28;19995;-66
2022/04/01 06:34:30;;;;;;;;;;;-0.10;99.90;;;;;;5034018;28;19967;-66
2022/04/01 06:36:59;;;;;;;;;;;-0.10;99.90;;;;;;5033915;28;19917;-67
2022/04/01 06:39:25;;;;;;;;;;;-0.10;99.90;;;;;;5034105;28;19917;-67
2022/04/01 06:41:54;;;;;;;;;;;-0.10;99.90;;;;;;5033098;28;19913;-67
2022/04/01 06:44:20;;;;;;;;;;;-0.10;99.90;;;;;;5035685;28;19913;-67
2022/04/01 06:46:48;;;;;;;;;;;-0.10;99.90;;;;;;5034122;28;19924;-67
2022/04/01 06:49:14;;;;;;;;;;;-0.10;99.90;;;;;;5036470;28;19924;-66
2022/04/01 06:51:40;;;;;;;;;;;-0.10;99.90;;;;;;5035223;28;19913;-67
2022/04/01 06:54:05;;;;;;;;;;;-0.10;99.90;;;;;;5035095;28;20290;-66
2022/04/01 06:56:31;;;;;;;;;;;-0.10;99.90;;;;;;5035059;28;19998;-67
2022/04/01 06:58:57;;;;;;;;;;;-0.10;99.90;;;;;;5035178;28;19956;-68
2022/04/01 07:01:22;;;;;;;;;;;-0.20;99.90;;;;;;5033271;28;19917;-68
2022/04/01 07:03:48;;;;;;;;;;;-0.20;99.90;;;;;;5036421;28;19923;-69
2022/04/01 07:06:13;;;;;;;;;;;-0.10;99.90;;;;;;5034447;28;20425;-66
2022/04/01 07:08:39;;;;;;;;;;;-0.10;99.90;;;;;;5034439;28;20004;-67
2022/04/01 07:11:04;;;;;;;;;;;-0.10;99.90;;;;;;5033602;28;19919;-66
2022/04/01 07:13:30;;;;;;;;;;;0.00;99.90;;;;;;5034622;28;20472;-66
2022/04/01 07:15:55;;;;;;;;;;;0.00;99.90;;;;;;5033993;28;20273;-67
2022/04/01 07:18:21;;;;;;;;;;;0.10;99.90;;;;;;5037759;28;19917;-68
2022/04/01 07:20:47;;;;;;;;;;;0.10;99.90;;;;;;5038902;28;19986;-67
2022/04/01 07:23:12;;;;;;;;;;;0.20;99.90;;;;;;5037416;28;20438;-68
2022/04/01 07:25:38;;;;;;;;;;;0.20;99.90;;;;;;5039738;28;19913;-67
2022/04/01 07:28:03;;;;;;;;;;;0.30;99.90;;;;;;5038543;28;19931;-68
2022/04/01 07:30:29;;;;;;;;;;;0.40;99.90;;;;;;5037312;28;20398;-68
2022/04/01 07:32:57;;;;;;;;;;;0.50;99.90;;;;;;5035692;28;19920;-68
2022/04/01 07:35:22;;;;;;;;;;;0.60;99.90;;;;;;5038671;28;19966;-67
2022/04/01 07:37:48;;;;;;;;;;;0.60;99.90;;;;;;5034046;28;20020;-65
2022/04/01 07:40:13;;;;;;;;;;;0.80;99.90;;;;;;5034799;28;20042;-66
2022/04/01 07:42:39;;;;;;;;;;;0.80;99.90;;;;;;5040062;28;20031;-67
2022/04/01 07:45:05;;;;;;;;;;;0.90;99.90;;;;;;5039459;28;20051;-67
2022/04/01 07:47:34;;;;;;;;;;;1.00;99.90;;;;;;5040403;28;19971;-65
2022/04/01 07:50:01;;;;;;;;;;;1.10;99.90;;;;;;5037131;28;19913;-66
2022/04/01 07:52:27;;;;;;;;;;;1.20;99.90;;;;;;5035372;28;19921;-66
2022/04/01 07:54:53;;;;;;;;;;;1.20;99.90;;;;;;5038334;28;20322;-66
2022/04/01 07:57:19;;;;;;;;;;;1.30;99.90;;;;;;5038627;28;20083;-66
2022/04/01 07:59:44;;;;;;;;;;;1.40;99.60;;;;;;5038249;28;20285;-69
2022/04/01 08:02:10;;;;;;;;;;;1.50;99.30;;;;;;5037340;28;19928;-67
2022/04/01 08:04:35;;;;;;;;;;;1.50;99.10;;;;;;5036841;28;19920;-68
2022/04/01 08:07:01;;;;;;;;;;;1.60;99.00;;;;;;5032908;28;20185;-68
2022/04/01 08:09:26;;;;;;;;;;;1.60;98.70;;;;;;5036290;28;19916;-67
2022/04/01 08:11:52;;;;;;;;;;;1.60;98.60;;;;;;5033569;28;20422;-68
2022/04/01 08:14:17;;;;;;;;;;;1.70;98.50;;;;;;5035060;28;19979;-67
2022/04/01 08:16:43;;;;;;;;;;;1.70;98.50;;;;;;5037144;28;20043;-66
2022/04/01 08:19:09;;;;;;;;;;;1.80;98.70;;;;;;5038446;28;20377;-66
2022/04/01 08:21:35;;;;;;;;;;;1.80;98.40;;;;;;5037288;28;19966;-66
2022/04/01 08:24:00;;;;;;;;;;;1.80;97.70;;;;;;5037227;28;19924;-66
2022/04/01 08:26:26;;;;;;;;;;;1.90;97.90;;;;;;5037980;28;19928;-66
2022/04/01 08:28:52;;;;;;;;;;;1.90;97.40;;;;;;5035528;28;19913;-67
2022/04/01 08:31:17;;;;;;;;;;;1.90;97.70;;;;;;5035095;28;19924;-67
2022/04/01 08:33:43;;;;;;;;;;;2.00;96.90;;;;;;5038035;28;19913;-65
2022/04/01 08:36:08;;;;;;;;;;;2.00;97.30;;;;;;5034893;28;19952;-66
2022/04/01 08:38:34;;;;;;;;;;;2.10;96.90;;;;;;5037800;28;19967;-66
2022/04/01 08:41:00;;;;;;;;;;;2.10;96.30;;;;;;5033712;28;19961;-66
2022/04/01 08:43:26;;;;;;;;;;;2.20;95.60;;;;;;5036572;28;19913;-66
2022/04/01 08:45:52;;;;;;;;;;;2.10;95.30;;;;;;5036172;28;19924;-66
2022/04/01 08:48:18;;;;;;;;;;;2.10;96.60;;;;;;5037420;28;20004;-66
2022/04/01 08:50:43;;;;;;;;;;;2.20;96.50;;;;;;5037696;28;19916;-66
2022/04/01 08:53:09;;;;;;;;;;;2.30;96.10;;;;;;5035836;28;20301;-66
2022/04/01 08:55:34;;;;;;;;;;;2.30;95.30;;;;;;5037316;28;20401;-66
2022/04/01 08:58:00;;;;;;;;;;;2.30;95.70;;;;;;5037339;28;19917;-67
2022/04/01 09:00:25;;;;;;;;;;;2.30;95.20;;;;;;5034583;28;20278;-67
2022/04/01 09:03:01;;;;;;;;;;;2.30;94.60;;;;;;5035727;28;19948;-66
2022/04/01 09:05:27;;;;;;;;;;;2.30;94.80;;;;;;5036111;28;19923;-66
2022/04/01 09:08:00;;;;;;;;;;;2.30;95.50;;;;;;5039757;28;19999;-67
2022/04/01 09:10:25;;;;;;;;;;;2.40;94.80;;;;;;5036716;28;19916;-66
2022/04/01 09:12:54;;;;;;;;;;;2.50;94.80;;;;;;5038692;28;20327;-66
2022/04/01 09:15:19;;;;;;;;;;;2.60;94.90;;;;;;5036030;28;20037;-66
2022/04/01 09:17:46;;;;;;;;;;;2.60;93.90;;;;;;5038922;28;20503;-66
2022/04/01 09:20:12;;;;;;;;;;;2.70;94.40;;;;;;5034699;28;19944;-66
2022/04/01 09:22:38;;;;;;;;;;;2.80;94.30;;;;;;5037097;28;20074;-67
2022/04/01 09:25:05;;;;;;;;;;;2.90;92.70;;;;;;5034950;28;20113;-68
2022/04/01 09:27:36;;;;;;;;;;;2.90;93.00;;;;;;5038140;28;20381;-67
2022/04/01 09:30:02;;;;;;;;;;;2.90;92.50;;;;;;5033144;28;20385;-67
2022/04/01 09:32:44;;;;;;;;;;;3.00;93.20;;;;;;5035156;28;19951;-70
2022/04/01 09:35:10;;;;;;;;;;;3.10;93.40;;;;;;5036284;28;20516;-69
2022/04/01 09:37:43;;;;;;;;;;;3.20;92.70;;;;;;5036766;28;19921;-69
2022/04/01 09:40:10;;;;;;;;;;;3.30;92.40;;;;;;5032659;28;19923;-65
2022/04/01 09:42:36;;;;;;;;;;;3.30;91.40;;;;;;5036128;28;20289;-66
2022/04/01 09:45:03;;;;;;;;;;;3.40;91.50;;;;;;5031494;28;19917;-65
2022/04/01 09:47:38;;;;;;;;;;;3.50;92.10;;;;;;5036246;28;19917;-67
2022/04/01 09:50:11;;;;;;;;;;;3.60;91.80;;;;;;5037728;28;19924;-68
2022/04/01 09:52:37;;;;;;;;;;;3.70;91.20;;;;;;5033917;28;19953;-67
2022/04/01 09:55:02;;;;;;;;;;;3.80;88.80;;;;;;5036532;28;19952;-66
2022/04/01 09:57:28;;;;;;;;;;;3.90;89.50;;;;;;5039248;28;19921;-67
2022/04/01 09:59:54;;;;;;;;;;;4.00;90.60;;;;;;5035687;28;20004;-67
2022/04/01 10:02:20;;;;;;;;;;;4.10;90.10;;;;;;5034104;28;20352;-69
2022/04/01 10:04:45;;;;;;;;;;;4.10;85.90;;;;;;5035412;28;19916;-69
2022/04/01 10:07:12;;;;;;;;;;;4.10;85.90;;;;;;5038767;28;19913;-68
2022/04/01 10:09:38;;;;;;;;;;;4.10;87.10;;;;;;5036897;28;19923;-67
2022/04/01 10:12:07;;;;;;;;;;;4.10;81.80;;;;;;5034722;28;20011;-67
2022/04/01 10:14:34;;;;;;;;;;;4.10;86.10;;;;;;5035529;28;19952;-66
2022/04/01 10:17:00;;;;;;;;;;;4.10;84.90;;;;;;5034528;28;19928;-67
2022/04/01 10:19:32;;;;;;;;;;;4.20;83.30;;;;;;5035307;28;20328;-67
2022/04/01 10:21:58;;;;;;;;;;;4.20;82.60;;;;;;5034831;28;19924;-67
2022/04/01 10:24:50;;;;;;;;;;;4.20;83.80;;;;;;5035449;28;19917;-67
2022/04/01 10:27:23;;;;;;;;;;;4.30;81.10;;;;;;5033124;28;19913;-67
2022/04/01 10:29:48;;;;;;;;;;;4.30;81.60;;;;;;5031088;28;19953;-67
2022/04/01 10:32:25;;;;;;;;;;;4.40;80.70;;;;;;5032970;28;19951;-67
2022/04/01 10:34:53;;;;;;;;;;;4.40;79.50;;;;;;5034446;28;19920;-68
2022/04/01 10:37:21;;;;;;;;;;;4.40;76.30;;;;;;5035659;28;19921;-68
2022/04/01 10:39:58;;;;;;;;;;;4.50;78.30;;;;;;5036003;28;19913;-68
2022/04/01 10:42:25;;;;;;;;;;;4.50;79.00;;;;;;5031675;28;19918;-67
2022/04/01 10:44:51;;;;;;;;;;;4.50;76.30;;;;;;5031774;28;21580;-68
2022/04/01 10:47:16;;;;;;;;;;;4.60;76.70;;;;;;5034163;28;19920;-67
2022/04/01 10:52:27;;;;;;;;;;;4.50;73.40;;;;;;5034666;28;19919;-69
2022/04/01 10:55:02;;;;;;;;;;;4.40;72.50;;;;;;5030696;28;19952;-69
2022/04/01 10:57:28;;;;;;;;;;;4.40;71.00;;;;;;5037764;28;19964;-69
2022/04/01 10:59:54;;;;;;;;;;;4.40;70.00;;;;;;5036571;28;19940;-69
2022/04/01 11:02:20;;;;;;;;;;;4.40;70.60;;;;;;5038146;28;20362;-69
2022/04/01 11:04:46;;;;;;;;;;;4.40;70.70;;;;;;5036505;28;19917;-69
2022/04/01 11:07:28;;;;;;;;;;;4.40;71.60;;;;;;5037131;28;19913;-69
2022/04/01 11:09:54;;;;;;;;;;;4.50;67.00;;;;;;5035746;28;19913;-69
2022/04/01 11:12:25;;;;;;;;;;;4.50;66.70;;;;;;5037020;28;20436;-69
2022/04/01 11:14:53;;;;;;;;;;;4.50;68.40;;;;;;5037103;28;19920;-69
2022/04/01 11:17:19;;;;;;;;;;;4.60;63.30;;;;;;5037352;28;20247;-69
2022/04/01 11:20:00;;;;;;;;;;;4.70;61.40;;;;;;5037746;28;19913;-69
2022/04/01 11:22:36;;;;;;;;;;;4.70;62.30;;;;;;5035305;28;19917;-69
2022/04/01 11:25:02;;;;;;;;;;;4.80;58.80;;;;;;5036208;28;20471;-69
2022/04/01 11:27:28;;;;;;;;;;;4.90;57.40;;;;;;5030863;28;19984;-68
2022/04/01 11:30:22;;;;;;;;;;;4.90;57.20;;;;;;5036936;28;19917;-67
2022/04/01 11:32:52;;;;;;;;;;;4.90;58.60;;;;;;5034545;28;20322;-66
2022/04/01 11:35:20;;;;;;;;;;;5.00;61.60;;;;;;5035977;28;20012;-68
2022/04/01 11:37:49;;;;;;;;;;;5.00;56.50;;;;;;5037597;28;19982;-67
2022/04/01 11:40:16;;;;;;;;;;;5.00;55.90;;;;;;5035289;28;20378;-68
2022/04/01 11:42:53;;;;;;;;;;;5.00;54.00;;;;;;5034346;28;19913;-68
2022/04/01 11:45:20;;;;;;;;;;;5.00;53.40;;;;;;5032978;28;19963;-68
2022/04/01 11:47:45;;;;;;;;;;;5.10;54.20;;;;;;5032950;28;19982;-67
2022/04/01 11:50:12;;;;;;;;;;;5.10;53.50;;;;;;5033827;28;20366;-68
2022/04/01 11:52:39;;;;;;;;;;;5.10;53.10;;;;;;5034400;28;19921;-67
2022/04/01 11:55:10;;;;;;;;;;;5.20;54.20;;;;;;5034837;28;19970;-69
2022/04/01 11:57:36;;;;;;;;;;;5.20;52.60;;;;;;5032883;28;20361;-69
2022/04/01 12:00:02;;;;;;;;;;;5.30;51.00;;;;;;5032468;28;19916;-67
2022/04/01 12:02:28;;;;;;;;;;;5.30;52.50;;;;;;5036310;28;20480;-68
2022/04/01 12:04:53;;;;;;;;;;;5.30;51.70;;;;;;5036572;28;19993;-67
2022/04/01 12:10:04;;;;;;;;;;;5.40;51.60;;;;;;5038039;28;19936;-66
2022/04/01 12:12:30;;;;;;;;;;;5.50;51.70;;;;;;5038275;28;19917;-69
2022/04/01 12:14:57;;;;;;;;;;;5.60;52.20;;;;;;5036000;28;19923;-66
2022/04/01 12:17:22;;;;;;;;;;;5.60;50.70;;;;;;5037416;28;19922;-65
2022/04/01 12:19:48;;;;;;;;;;;5.60;51.20;;;;;;5038096;28;19913;-65
2022/04/01 12:22:14;;;;;;;;;;;5.70;51.10;;;;;;5035424;28;19917;-65
2022/04/01 12:24:39;;;;;;;;;;;5.70;50.00;;;;;;5038148;28;19913;-65
2022/04/01 12:27:06;;;;;;;;;;;5.70;48.40;;;;;;5036102;28;19917;-65
2022/04/01 12:29:32;;;;;;;;;;;5.70;48.80;;;;;;5037436;28;20069;-64
2022/04/01 12:32:03;;;;;;;;;;;5.80;49.50;;;;;;5038846;28;20016;-65
2022/04/01 12:34:28;;;;;;;;;;;5.80;48.30;;;;;;5037382;28;20074;-64
2022/04/01 12:36:56;;;;;;;;;;;5.80;47.40;;;;;;5034201;28;20456;-64
2022/04/01 12:39:22;;;;;;;;;;;5.80;46.80;;;;;;5036377;28;19944;-64
2022/04/01 12:41:49;;;;;;;;;;;5.80;47.90;;;;;;5032523;28;20273;-64
2022/04/01 12:44:14;;;;;;;;;;;5.90;46.90;;;;;;5036916;28;20008;-64
2022/04/01 12:46:46;;;;;;;;;;;5.90;46.20;;;;;;5035025;28;20000;-66
2022/04/01 12:49:12;;;;;;;;;;;5.90;47.00;;;;;;5033494;28;19999;-66
2022/04/01 12:51:40;;;;;;;;;;;6.00;47.20;;;;;;5038041;28;20428;-66
2022/04/01 12:54:11;;;;;;;;;;;6.10;46.90;;;;;;5038557;28;19945;-65
2022/04/01 12:56:37;;;;;;;;;;;6.10;47.80;;;;;;5039159;28;19976;-65
2022/04/01 12:59:09;;;;;;;;;;;6.20;46.90;;;;;;5036789;28;20017;-65
2022/04/01 13:01:35;;;;;;;;;;;6.20;46.90;;;;;;5038553;28;20003;-65
2022/04/01 13:04:01;;;;;;;;;;;6.20;46.30;;;;;;5038266;28;20447;-65
2022/04/01 13:06:28;;;;;;;;;;;6.20;45.90;;;;;;5038240;28;19924;-66
2022/04/01 13:09:04;;;;;;;;;;;6.20;45.50;;;;;;5037568;28;19917;-65
2022/04/01 13:11:36;;;;;;;;;;;6.20;46.00;;;;;;5040007;28;19909;-64
2022/04/01 13:14:02;;;;;;;;;;;6.30;45.30;;;;;;5036841;28;19931;-64
2022/04/01 13:16:34;;;;;;;;;;;6.30;44.90;;;;;;5037466;28;19925;-65
2022/04/01 13:19:18;;;;;;;;;;;6.20;44.70;;;;;;5038068;28;20293;-65
2022/04/01 13:21:44;;;;;;;;;;;6.20;44.40;;;;;;5036714;28;19918;-65
2022/04/01 13:24:10;;;;;;;;;;;6.20;45.30;;;;;;5035657;28;20027;-67
2022/04/01 13:26:35;;;;;;;;;;;6.20;45.00;;;;;;5031153;28;20474;-66
2022/04/01 13:29:00;;;;;;;;;;;6.20;44.30;;;;;;5029369;28;20385;-66
2022/04/01 13:31:26;;;;;;;;;;;6.20;43.80;;;;;;5033455;28;19916;-67
2022/04/01 13:33:51;;;;;;;;;;;6.20;44.20;;;;;;5035020;28;20361;-67
2022/04/01 13:36:17;;;;;;;;;;;6.20;43.80;;;;;;5035234;28;20000;-67
2022/04/01 13:38:42;;;;;;;;;;;6.20;43.60;;;;;;5034518;28;19913;-67
2022/04/01 13:41:08;;;;;;;;;;;6.30;43.70;;;;;;5035320;28;19928;-67
2022/04/01 13:43:34;;;;;;;;;;;6.30;44.10;;;;;;5037055;28;19921;-67
2022/04/01 13:45:59;;;;;;;;;;;6.30;44.70;;;;;;5032412;28;19913;-67
2022/04/01 13:48:24;;;;;;;;;;;6.40;45.10;;;;;;5033511;28;19924;-67
2022/04/01 13:50:52;;;;;;;;;;;6.40;44.90;;;;;;5036180;28;19913;-67
2022/04/01 13:53:18;;;;;;;;;;;6.40;44.70;;;;;;5033045;28;20361;-67
2022/04/01 13:55:43;;;;;;;;;;;6.50;44.10;;;;;;5037114;28;19913;-68
2022/04/01 13:58:09;;;;;;;;;;;6.40;44.10;;;;;;5036957;28;20332;-68
2022/04/01 14:00:34;;;;;;;;;;;6.40;44.00;;;;;;5036730;28;19925;-67
2022/04/01 14:03:00;;;;;;;;;;;6.40;44.80;;;;;;5036190;28;19917;-67
2022/04/01 14:05:25;;;;;;;;;;;6.50;45.10;;;;;;5035449;28;19952;-68
2022/04/01 14:07:50;;;;;;;;;;;6.50;45.00;;;;;;5036902;28;19924;-67
2022/04/01 14:10:16;;;;;;;;;;;6.50;45.20;;;;;;5037571;28;19921;-67
2022/04/01 14:12:41;;;;;;;;;;;6.50;45.80;;;;;;5035796;28;20376;-67
2022/04/01 14:15:07;;;;;;;;;;;6.60;46.20;;;;;;5036706;28;19913;-67
2022/04/01 14:17:33;;;;;;;;;;;6.60;46.40;;;;;;5032481;28;20016;-68
2022/04/01 14:20:00;;;;;;;;;;;6.70;46.20;;;;;;5035220;28;20063;-67
2022/04/01 14:22:26;;;;;;;;;;;6.70;46.20;;;;;;5034822;28;19944;-67
2022/04/01 14:24:51;;;;;;;;;;;6.70;46.90;;;;;;5035160;28;19960;-67
2022/04/01 14:27:16;;;;;;;;;;;6.80;46.50;;;;;;5034031;28;19917;-67
2022/04/01 14:32:26;;;;;;;;;;;6.70;46.10;;;;;;5025677;28;19924;-67
2022/04/01 14:34:52;;;;;;;;;;;6.60;45.80;;;;;;5028717;28;19913;-67
2022/04/01 14:37:17;;;;;;;;;;;6.70;45.10;;;;;;5029795;28;19928;-67
2022/04/01 14:39:43;;;;;;;;;;;6.60;45.60;;;;;;5029330;28;19921;-65
2022/04/01 14:42:08;;;;;;;;;;;6.60;45.50;;;;;;5027992;28;20278;-65
2022/04/01 14:44:34;;;;;;;;;;;6.60;45.20;;;;;;5031695;28;19916;-65